sensor_id;sensor_type;location;lat;lon;timestamp;pressure;altitude;pressure_sealevel;temperature;humidity
32789;BME280;19141;48.980;8.410;2023-03-14T05:22:32;98223.09;;;11.02;83.66
32789;BME280;19141;48.980;8.410;2023-03-14T05:25:16;98225.44;;;11.10;81.60
32789;BME280;19141;48.980;8.410;2023-03-14T05:28:02;98218.63;;;11.14;81.07
32789;BME280;19141;48.980;8.410;2023-03-14T05:30:37;98214.47;;;11.19;80.27
32789;BME280;19141;48.980;8.410;2023-03-14T05:33:18;98210.31;;;11.23;80.55
32789;BME280;19141;48.980;8.410;2023-03-14T05:36:00;98206.97;;;11.27;79.65
32789;BME280;19141;48.980;8.410;2023-03-14T05:38:46;98182.50;;;11.19;80.22
32789;BME280;19141;48.980;8.410;2023-03-14T05:41:41;98198.38;;;11.25;80.23
32789;BME280;19141;48.980;8.410;2023-03-14T05:44:23;98177.44;;;11.29;79.45
32789;BME280;19141;48.980;8.410;2023-03-14T05:47:09;98186.44;;;11.28;80.01
32789;BME280;19141;48.980;8.410;2023-03-14T05:49:53;98153.88;;;11.26;78.94
32789;BME280;19141;48.980;8.410;2023-03-14T05:52:32;98150.06;;;11.22;79.39
32789;BME280;19141;48.980;8.410;2023-03-14T05:55:08;98160.47;;;11.11;80.88
32789;BME280;19141;48.980;8.410;2023-03-14T05:58:02;98151.28;;;11.07;80.21
32789;BME280;19141;48.980;8.410;2023-03-14T06:00:54;98147.47;;;11.03;80.37
32789;BME280;19141;48.980;8.410;2023-03-14T06:03:34;98148.38;;;10.97;80.85
32789;BME280;19141;48.980;8.410;2023-03-14T06:05:59;98144.66;;;10.98;80.52
32789;BME280;19141;48.980;8.410;2023-03-14T06:08:25;98130.41;;;10.93;81.21
32789;BME280;19141;48.980;8.410;2023-03-14T06:10:51;98139.28;;;10.86;81.54
32789;BME280;19141;48.980;8.410;2023-03-14T06:13:18;98145.88;;;10.84;81.65
32789;BME280;19141;48.980;8.410;2023-03-14T06:15:44;98141.59;;;10.83;82.30
32789;BME280;19141;48.980;8.410;2023-03-14T06:18:12;98130.94;;;10.83;81.76
32789;BME280;19141;48.980;8.410;2023-03-14T06:20:39;98145.50;;;10.80;82.54
32789;BME280;19141;48.980;8.410;2023-03-14T06:23:07;98134.50;;;10.77;81.71
32789;BME280;19141;48.980;8.410;2023-03-14T06:25:34;98138.72;;;10.84;81.30
32789;BME280;19141;48.980;8.410;2023-03-14T06:27:59;98128.06;;;10.84;81.41
32789;BME280;19141;48.980;8.410;2023-03-14T06:30:25;98119.84;;;10.86;81.49
32789;BME280;19141;48.980;8.410;2023-03-14T06:32:52;98138.63;;;10.91;81.23
32789;BME280;19141;48.980;8.410;2023-03-14T06:35:19;98129.00;;;10.90;80.97
32789;BME280;19141;48.980;8.410;2023-03-14T06:37:46;98141.84;;;10.93;81.96
32789;BME280;19141;48.980;8.410;2023-03-14T06:40:12;98145.47;;;10.99;81.09
32789;BME280;19141;48.980;8.410;2023-03-14T06:43:02;98149.81;;;11.11;79.82
32789;BME280;19141;48.980;8.410;2023-03-14T06:45:29;98150.63;;;11.12;79.73
32789;BME280;19141;48.980;8.410;2023-03-14T06:47:57;98133.94;;;11.17;79.73
32789;BME280;19141;48.980;8.410;2023-03-14T06:50:29;98130.25;;;11.18;79.43
32789;BME280;19141;48.980;8.410;2023-03-14T06:52:56;98143.22;;;11.26;80.37
32789;BME280;19141;48.980;8.410;2023-03-14T06:55:24;98144.28;;;11.25;79.62
32789;BME280;19141;48.980;8.410;2023-03-14T06:57:52;98148.13;;;11.29;81.09
32789;BME280;19141;48.980;8.410;2023-03-14T07:00:18;98156.44;;;11.32;79.84
32789;BME280;19141;48.980;8.410;2023-03-14T07:02:44;98164.34;;;11.39;80.87
32789;BME280;19141;48.980;8.410;2023-03-14T07:05:26;98164.59;;;11.37;79.88
32789;BME280;19141;48.980;8.410;2023-03-14T07:07:52;98161.25;;;11.42;79.93
32789;BME280;19141;48.980;8.410;2023-03-14T07:10:17;98166.56;;;11.42;80.69
32789;BME280;19141;48.980;8.410;2023-03-14T07:12:43;98177.81;;;11.44;79.70
32789;BME280;19141;48.980;8.410;2023-03-14T07:15:08;98182.00;;;11.52;78.83
32789;BME280;19141;48.980;8.410;2023-03-14T07:17:34;98185.47;;;11.52;79.07
32789;BME280;19141;48.980;8.410;2023-03-14T07:19:59;98196.25;;;11.57;78.91
32789;BME280;19141;48.980;8.410;2023-03-14T07:22:26;98196.97;;;11.64;78.47
32789;BME280;19141;48.980;8.410;2023-03-14T07:24:52;98200.34;;;11.72;79.20
32789;BME280;19141;48.980;8.410;2023-03-14T07:27:18;98203.81;;;11.72;77.70
32789;BME280;19141;48.980;8.410;2023-03-14T07:29:44;98207.59;;;11.83;76.79
32789;BME280;19141;48.980;8.410;2023-03-14T07:32:09;98215.59;;;11.83;76.92
32789;BME280;19141;48.980;8.410;2023-03-14T07:34:35;98212.56;;;11.91;77.01
32789;BME280;19141;48.980;8.410;2023-03-14T07:37:00;98209.91;;;11.91;76.68
32789;BME280;19141;48.980;8.410;2023-03-14T07:39:26;98210.84;;;11.97;76.42
32789;BME280;19141;48.980;8.410;2023-03-14T07:42:07;98208.31;;;12.02;76.00
32789;BME280;19141;48.980;8.410;2023-03-14T07:44:53;98202.28;;;12.06;76.16
32789;BME280;19141;48.980;8.410;2023-03-14T07:47:18;98209.44;;;12.29;77.59
32789;BME280;19141;48.980;8.410;2023-03-14T07:49:43;98201.31;;;12.47;73.33
32789;BME280;19141;48.980;8.410;2023-03-14T07:52:09;98216.38;;;12.54;72.76
32789;BME280;19141;48.980;8.410;2023-03-14T07:54:34;98201.97;;;12.66;73.44
32789;BME280;19141;48.980;8.410;2023-03-14T07:57:00;98210.97;;;12.77;71.81
32789;BME280;19141;48.980;8.410;2023-03-14T07:59:26;98210.63;;;12.85;71.00
32789;BME280;19141;48.980;8.410;2023-03-14T08:01:52;98209.44;;;12.93;71.23
32789;BME280;19141;48.980;8.410;2023-03-14T08:04:18;98215.16;;;12.85;71.11
32789;BME280;19141;48.980;8.410;2023-03-14T08:06:43;98223.41;;;12.83;71.73
32789;BME280;19141;48.980;8.410;2023-03-14T08:09:09;98218.88;;;12.84;71.24
32789;BME280;19141;48.980;8.410;2023-03-14T08:11:34;98224.59;;;12.75;70.44
32789;BME280;19141;48.980;8.410;2023-03-14T08:14:00;98239.34;;;12.78;70.98
32789;BME280;19141;48.980;8.410;2023-03-14T08:16:25;98227.38;;;12.81;70.45
32789;BME280;19141;48.980;8.410;2023-03-14T08:18:51;98226.81;;;12.67;72.74
32789;BME280;19141;48.980;8.410;2023-03-14T08:21:16;98228.31;;;12.63;73.60
32789;BME280;19141;48.980;8.410;2023-03-14T08:23:41;98244.81;;;12.71;74.17
32789;BME280;19141;48.980;8.410;2023-03-14T08:26:08;98228.44;;;12.68;71.37
32789;BME280;19141;48.980;8.410;2023-03-14T08:28:33;98240.19;;;12.67;73.52
32789;BME280;19141;48.980;8.410;2023-03-14T08:31:00;98240.31;;;12.60;74.67
32789;BME280;19141;48.980;8.410;2023-03-14T08:33:27;98234.59;;;12.57;74.78
32789;BME280;19141;48.980;8.410;2023-03-14T08:35:56;98241.81;;;12.44;75.53
32789;BME280;19141;48.980;8.410;2023-03-14T08:38:23;98229.63;;;12.48;75.58
32789;BME280;19141;48.980;8.410;2023-03-14T08:40:48;98228.59;;;12.38;73.12
32789;BME280;19141;48.980;8.410;2023-03-14T08:43:15;98223.84;;;12.40;73.90
32789;BME280;19141;48.980;8.410;2023-03-14T08:45:40;98230.09;;;12.45;74.16
32789;BME280;19141;48.980;8.410;2023-03-14T08:48:06;98231.00;;;12.63;72.91
32789;BME280;19141;48.980;8.410;2023-03-14T08:50:31;98227.75;;;12.61;71.58
32789;BME280;19141;48.980;8.410;2023-03-14T08:52:57;98220.78;;;12.60;71.01
32789;BME280;19141;48.980;8.410;2023-03-14T08:55:26;98231.09;;;12.68;71.19
32789;BME280;19141;48.980;8.410;2023-03-14T08:57:52;98224.06;;;12.90;71.49
32789;BME280;19141;48.980;8.410;2023-03-14T09:00:18;98222.41;;;13.01;69.85
32789;BME280;19141;48.980;8.410;2023-03-14T09:02:44;98235.34;;;12.92;69.86
32789;BME280;19141;48.980;8.410;2023-03-14T09:05:10;98245.38;;;12.85;70.88
32789;BME280;19141;48.980;8.410;2023-03-14T09:07:36;98243.28;;;12.75;70.70
32789;BME280;19141;48.980;8.410;2023-03-14T09:10:01;98244.91;;;12.76;71.22
32789;BME280;19141;48.980;8.410;2023-03-14T09:12:27;98253.41;;;12.73;71.10
32789;BME280;19141;48.980;8.410;2023-03-14T09:14:53;98253.50;;;12.79;71.83
32789;BME280;19141;48.980;8.410;2023-03-14T09:17:18;98245.72;;;12.77;71.15
32789;BME280;19141;48.980;8.410;2023-03-14T09:19:44;98237.69;;;12.77;70.63
32789;BME280;19141;48.980;8.410;2023-03-14T09:22:09;98244.63;;;12.90;71.07
32789;BME280;19141;48.980;8.410;2023-03-14T09:24:34;98245.09;;;12.98;71.50
32789;BME280;19141;48.980;8.410;2023-03-14T09:27:00;98243.56;;;13.02;71.09
32789;BME280;19141;48.980;8.410;2023-03-14T09:29:25;98246.53;;;13.18;70.71
32789;BME280;19141;48.980;8.410;2023-03-14T09:31:51;98240.84;;;13.26;69.20
32789;BME280;19141;48.980;8.410;2023-03-14T09:34:17;98241.25;;;13.35;68.70
32789;BME280;19141;48.980;8.410;2023-03-14T09:36:42;98251.72;;;13.36;68.68
32789;BME280;19141;48.980;8.410;2023-03-14T09:39:10;98250.91;;;13.36;69.35
32789;BME280;19141;48.980;8.410;2023-03-14T09:41:41;98251.66;;;13.19;68.88
32789;BME280;19141;48.980;8.410;2023-03-14T09:44:14;98263.28;;;13.13;69.16
32789;BME280;19141;48.980;8.410;2023-03-14T09:46:44;98265.84;;;13.08;69.34
32789;BME280;19141;48.980;8.410;2023-03-14T09:49:17;98273.09;;;12.96;73.51
32789;BME280;19141;48.980;8.410;2023-03-14T09:51:47;98301.91;;;12.94;73.63
32789;BME280;19141;48.980;8.410;2023-03-14T09:54:43;98279.19;;;12.80;74.22
32789;BME280;19141;48.980;8.410;2023-03-14T09:57:17;98288.38;;;12.72;77.54
32789;BME280;19141;48.980;8.410;2023-03-14T09:59:45;98290.56;;;12.75;77.30
32789;BME280;19141;48.980;8.410;2023-03-14T10:02:17;98289.38;;;12.71;78.76
32789;BME280;19141;48.980;8.410;2023-03-14T10:04:45;98302.41;;;12.56;80.46
32789;BME280;19141;48.980;8.410;2023-03-14T10:07:14;98299.31;;;12.59;81.98
32789;BME280;19141;48.980;8.410;2023-03-14T10:09:56;98287.22;;;12.33;85.02
32789;BME280;19141;48.980;8.410;2023-03-14T10:12:55;98290.72;;;12.33;88.56
32789;BME280;19141;48.980;8.410;2023-03-14T10:15:31;98297.91;;;12.33;87.84
32789;BME280;19141;48.980;8.410;2023-03-14T10:17:59;98288.16;;;12.27;85.37
32789;BME280;19141;48.980;8.410;2023-03-14T10:25:31;98320.84;;;12.10;89.49
32789;BME280;19141;48.980;8.410;2023-03-14T10:27:56;98321.81;;;11.86;91.97
32789;BME280;19141;48.980;8.410;2023-03-14T10:30:34;98318.00;;;11.82;92.83
32789;BME280;19141;48.980;8.410;2023-03-14T10:33:29;98329.72;;;11.81;94.98
32789;BME280;19141;48.980;8.410;2023-03-14T10:36:02;98323.34;;;11.82;95.05
32789;BME280;19141;48.980;8.410;2023-03-14T10:38:34;98328.97;;;11.74;94.17
32789;BME280;19141;48.980;8.410;2023-03-14T10:41:01;98326.06;;;11.75;96.94
32789;BME280;19141;48.980;8.410;2023-03-14T10:43:34;98344.28;;;11.48;99.09
32789;BME280;19141;48.980;8.410;2023-03-14T10:46:11;98343.09;;;11.44;100.00
32789;BME280;19141;48.980;8.410;2023-03-14T10:48:57;98331.63;;;11.25;100.00
32789;BME280;19141;48.980;8.410;2023-03-14T10:51:28;98336.47;;;10.98;100.00
32789;BME280;19141;48.980;8.410;2023-03-14T10:54:19;98346.97;;;10.93;100.00
32789;BME280;19141;48.980;8.410;2023-03-14T10:56:56;98353.94;;;10.76;100.00
32789;BME280;19141;48.980;8.410;2023-03-14T10:59:22;98343.28;;;10.76;100.00
32789;BME280;19141;48.980;8.410;2023-03-14T11:01:55;98357.59;;;10.75;100.00
32789;BME280;19141;48.980;8.410;2023-03-14T11:07:40;98373.56;;;10.75;100.00
32789;BME280;19141;48.980;8.410;2023-03-14T11:10:45;98380.06;;;10.60;100.00
32789;BME280;19141;48.980;8.410;2023-03-14T11:13:17;98372.13;;;10.54;100.00
32789;BME280;19141;48.980;8.410;2023-03-14T11:20:59;98406.63;;;10.11;100.00
32789;BME280;19141;48.980;8.410;2023-03-14T11:26:37;98423.28;;;9.99;100.00
32789;BME280;19141;48.980;8.410;2023-03-14T11:29:39;98437.91;;;10.15;100.00
32789;BME280;19141;48.980;8.410;2023-03-14T11:32:23;98448.56;;;10.09;100.00
32789;BME280;19141;48.980;8.410;2023-03-14T11:34:53;98472.44;;;10.22;100.00
32789;BME280;19141;48.980;8.410;2023-03-14T11:40:11;98510.19;;;10.12;100.00
32789;BME280;19141;48.980;8.410;2023-03-14T11:42:41;98518.38;;;10.11;99.60
32789;BME280;19141;48.980;8.410;2023-03-14T11:45:17;98535.78;;;10.06;97.61
32789;BME280;19141;48.980;8.410;2023-03-14T11:47:44;98528.47;;;9.89;97.85
32789;BME280;19141;48.980;8.410;2023-03-14T11:50:22;98550.75;;;9.94;97.49
32789;BME280;19141;48.980;8.410;2023-03-14T11:53:01;98561.25;;;9.76;97.85
32789;BME280;19141;48.980;8.410;2023-03-14T11:55:32;98576.56;;;9.81;94.78
32789;BME280;19141;48.980;8.410;2023-03-14T11:58:03;98570.28;;;9.62;92.80
32789;BME280;19141;48.980;8.410;2023-03-14T12:00:33;98596.88;;;9.55;92.06
32789;BME280;19141;48.980;8.410;2023-03-14T12:03:35;98600.16;;;9.37;89.91
32789;BME280;19141;48.980;8.410;2023-03-14T12:06:19;98632.03;;;9.44;92.01
32789;BME280;19141;48.980;8.410;2023-03-14T12:08:50;98639.81;;;9.52;94.05
32789;BME280;19141;48.980;8.410;2023-03-14T12:11:33;98646.56;;;9.55;91.06
32789;BME280;19141;48.980;8.410;2023-03-14T12:14:01;98659.84;;;9.61;88.59
32789;BME280;19141;48.980;8.410;2023-03-14T12:16:32;98659.44;;;9.64;87.43
32789;BME280;19141;48.980;8.410;2023-03-14T12:19:14;98658.22;;;9.73;85.07
32789;BME280;19141;48.980;8.410;2023-03-14T12:21:53;98664.94;;;9.83;83.03
32789;BME280;19141;48.980;8.410;2023-03-14T12:24:25;98678.84;;;10.04;82.29
32789;BME280;19141;48.980;8.410;2023-03-14T12:26:57;98669.16;;;10.17;77.56
32789;BME280;19141;48.980;8.410;2023-03-14T12:29:23;98675.31;;;10.37;73.95
32789;BME280;19141;48.980;8.410;2023-03-14T12:32:07;98686.50;;;10.97;72.03
32789;BME280;19141;48.980;8.410;2023-03-14T12:34:40;98690.53;;;11.69;60.63
32789;BME280;19141;48.980;8.410;2023-03-14T12:42:36;98706.94;;;13.38;52.97
32789;BME280;19141;48.980;8.410;2023-03-14T12:45:31;98720.03;;;14.40;51.04
32789;BME280;19141;48.980;8.410;2023-03-14T12:48:23;98735.22;;;15.27;48.54
32789;BME280;19141;48.980;8.410;2023-03-14T12:51:02;98730.38;;;15.12;45.99
32789;BME280;19141;48.980;8.410;2023-03-14T12:56:38;98749.63;;;13.98;46.54
32789;BME280;19141;48.980;8.410;2023-03-14T12:59:30;98749.84;;;14.20;47.08
32789;BME280;19141;48.980;8.410;2023-03-14T13:05:00;98762.47;;;15.35;43.20
32789;BME280;19141;48.980;8.410;2023-03-14T13:10:28;98769.31;;;15.43;42.15
32789;BME280;19141;48.980;8.410;2023-03-14T13:13:19;98785.53;;;15.19;40.65
32789;BME280;19141;48.980;8.410;2023-03-14T13:15:47;98793.56;;;15.48;42.04
32789;BME280;19141;48.980;8.410;2023-03-14T13:18:40;98804.28;;;14.56;40.97
32789;BME280;19141;48.980;8.410;2023-03-14T13:21:16;98810.91;;;14.42;40.43
32789;BME280;19141;48.980;8.410;2023-03-14T13:24:02;98807.41;;;13.76;42.75
32789;BME280;19141;48.980;8.410;2023-03-14T13:26:36;98800.91;;;13.05;42.37
32789;BME280;19141;48.980;8.410;2023-03-14T13:29:29;98833.22;;;12.42;44.19
32789;BME280;19141;48.980;8.410;2023-03-14T13:32:19;98832.06;;;11.75;43.80
32789;BME280;19141;48.980;8.410;2023-03-14T13:34:45;98852.06;;;11.52;44.63
32789;BME280;19141;48.980;8.410;2023-03-14T13:37:21;98857.28;;;11.34;45.86
32789;BME280;19141;48.980;8.410;2023-03-14T13:39:51;98860.63;;;11.23;46.11
32789;BME280;19141;48.980;8.410;2023-03-14T13:42:17;98885.69;;;11.02;46.95
32789;BME280;19141;48.980;8.410;2023-03-14T13:44:43;98892.44;;;11.11;47.30
32789;BME280;19141;48.980;8.410;2023-03-14T13:47:14;98894.31;;;10.97;47.84
32789;BME280;19141;48.980;8.410;2023-03-14T13:49:40;98899.66;;;10.91;47.56
32789;BME280;19141;48.980;8.410;2023-03-14T13:52:37;98918.53;;;10.63;46.40
32789;BME280;19141;48.980;8.410;2023-03-14T13:55:04;98913.00;;;10.84;47.34
32789;BME280;19141;48.980;8.410;2023-03-14T13:57:52;98925.66;;;10.95;46.27
32789;BME280;19141;48.980;8.410;2023-03-14T14:00:24;98945.97;;;10.96;46.33
32789;BME280;19141;48.980;8.410;2023-03-14T14:02:53;98930.16;;;11.01;46.63
32789;BME280;19141;48.980;8.410;2023-03-14T14:05:20;98942.50;;;10.89;46.65
32789;BME280;19141;48.980;8.410;2023-03-14T14:07:45;98959.09;;;10.91;46.82
32789;BME280;19141;48.980;8.410;2023-03-14T14:10:12;98972.41;;;10.91;45.14
32789;BME280;19141;48.980;8.410;2023-03-14T14:12:48;98959.69;;;10.86;45.61
32789;BME280;19141;48.980;8.410;2023-03-14T14:15:20;98968.28;;;11.02;45.94
32789;BME280;19141;48.980;8.410;2023-03-14T14:17:52;98972.63;;;10.83;47.09
32789;BME280;19141;48.980;8.410;2023-03-14T14:20:31;98981.00;;;11.00;46.73
32789;BME280;19141;48.980;8.410;2023-03-14T14:23:02;98991.44;;;11.14;46.37
32789;BME280;19141;48.980;8.410;2023-03-14T14:25:29;98990.59;;;11.27;46.60
32789;BME280;19141;48.980;8.410;2023-03-14T14:27:55;98990.75;;;11.52;45.27
32789;BME280;19141;48.980;8.410;2023-03-14T14:32:48;98992.13;;;11.81;44.26
32789;BME280;19141;48.980;8.410;2023-03-14T14:37:49;99003.97;;;11.92;43.47
32789;BME280;19141;48.980;8.410;2023-03-14T14:40:24;99008.06;;;12.01;44.16
32789;BME280;19141;48.980;8.410;2023-03-14T14:42:50;99032.13;;;11.88;43.60
32789;BME280;19141;48.980;8.410;2023-03-14T14:45:19;99028.22;;;11.90;43.80
32789;BME280;19141;48.980;8.410;2023-03-14T14:52:56;99039.81;;;11.38;45.22
32789;BME280;19141;48.980;8.410;2023-03-14T14:55:22;99033.66;;;11.31;47.24
32789;BME280;19141;48.980;8.410;2023-03-14T14:57:52;99044.34;;;10.98;47.91
32789;BME280;19141;48.980;8.410;2023-03-14T15:00:21;99051.91;;;11.07;48.55
32789;BME280;19141;48.980;8.410;2023-03-14T15:02:52;99057.25;;;11.07;47.79
32789;BME280;19141;48.980;8.410;2023-03-14T15:05:23;99063.41;;;11.01;48.23
32789;BME280;19141;48.980;8.410;2023-03-14T15:07:49;99058.88;;;10.95;47.85
32789;BME280;19141;48.980;8.410;2023-03-14T15:10:20;99059.06;;;10.80;49.37
32789;BME280;19141;48.980;8.410;2023-03-14T15:12:46;99054.16;;;10.71;49.22
32789;BME280;19141;48.980;8.410;2023-03-14T15:15:13;99055.38;;;10.75;49.15
32789;BME280;19141;48.980;8.410;2023-03-14T15:17:39;99049.41;;;10.53;49.88
32789;BME280;19141;48.980;8.410;2023-03-14T15:20:06;99064.78;;;10.57;50.66
32789;BME280;19141;48.980;8.410;2023-03-14T15:22:32;99054.75;;;10.59;51.94
32789;BME280;19141;48.980;8.410;2023-03-14T15:24:58;99064.16;;;10.55;51.86
32789;BME280;19141;48.980;8.410;2023-03-14T15:27:23;99059.03;;;10.47;50.67
32789;BME280;19141;48.980;8.410;2023-03-14T15:29:50;99053.13;;;10.65;49.95
32789;BME280;19141;48.980;8.410;2023-03-14T15:32:16;99067.84;;;10.54;51.06
32789;BME280;19141;48.980;8.410;2023-03-14T15:34:43;99076.28;;;10.65;50.74
32789;BME280;19141;48.980;8.410;2023-03-14T15:37:13;99080.97;;;10.63;51.03
32789;BME280;19141;48.980;8.410;2023-03-14T15:39:41;99087.31;;;10.62;51.46
32789;BME280;19141;48.980;8.410;2023-03-14T15:42:07;99086.50;;;10.68;50.10
32789;BME280;19141;48.980;8.410;2023-03-14T15:44:33;99090.94;;;10.41;51.88
32789;BME280;19141;48.980;8.410;2023-03-14T15:46:58;99094.19;;;10.36;51.73
32789;BME280;19141;48.980;8.410;2023-03-14T15:49:24;99104.47;;;10.39;52.01
32789;BME280;19141;48.980;8.410;2023-03-14T15:51:49;99096.47;;;10.32;51.54
32789;BME280;19141;48.980;8.410;2023-03-14T15:54:15;99108.44;;;10.22;52.94
32789;BME280;19141;48.980;8.410;2023-03-14T15:56:40;99117.63;;;10.13;53.63
32789;BME280;19141;48.980;8.410;2023-03-14T15:59:06;99121.72;;;10.15;53.86
32789;BME280;19141;48.980;8.410;2023-03-14T16:01:31;99126.75;;;9.97;55.28
32789;BME280;19141;48.980;8.410;2023-03-14T16:03:57;99138.56;;;9.88;57.51
32789;BME280;19141;48.980;8.410;2023-03-14T16:06:39;99138.53;;;9.81;59.00
32789;BME280;19141;48.980;8.410;2023-03-14T16:09:05;99155.25;;;9.75;59.29
32789;BME280;19141;48.980;8.410;2023-03-14T16:11:30;99159.06;;;9.59;62.28
32789;BME280;19141;48.980;8.410;2023-03-14T16:13:55;99153.75;;;9.38;62.33
32789;BME280;19141;48.980;8.410;2023-03-14T16:16:21;99166.09;;;9.24;61.32
32789;BME280;19141;48.980;8.410;2023-03-14T16:18:46;99186.09;;;8.98;63.23
32789;BME280;19141;48.980;8.410;2023-03-14T16:21:14;99171.66;;;8.86;64.81
32789;BME280;19141;48.980;8.410;2023-03-14T16:23:40;99178.78;;;8.64;67.55
32789;BME280;19141;48.980;8.410;2023-03-14T16:26:09;99176.16;;;8.50;69.43
32789;BME280;19141;48.980;8.410;2023-03-14T16:28:35;99185.41;;;8.39;69.53
32789;BME280;19141;48.980;8.410;2023-03-14T16:31:05;99187.59;;;8.50;68.02
32789;BME280;19141;48.980;8.410;2023-03-14T16:33:32;99191.69;;;8.53;68.37
32789;BME280;19141;48.980;8.410;2023-03-14T16:35:59;99181.19;;;8.45;68.11
32789;BME280;19141;48.980;8.410;2023-03-14T16:38:26;99206.00;;;8.37;69.22
32789;BME280;19141;48.980;8.410;2023-03-14T16:41:15;99210.56;;;8.28;71.13
32789;BME280;19141;48.980;8.410;2023-03-14T16:43:41;99201.66;;;8.21;77.44
32789;BME280;19141;48.980;8.410;2023-03-14T16:46:11;99211.63;;;8.04;80.94
32789;BME280;19141;48.980;8.410;2023-03-14T16:48:37;99207.47;;;7.72;85.37
32789;BME280;19141;48.980;8.410;2023-03-14T16:51:03;99219.88;;;7.57;84.35
32789;BME280;19141;48.980;8.410;2023-03-14T16:53:29;99211.16;;;7.48;84.34
32789;BME280;19141;48.980;8.410;2023-03-14T16:55:55;99219.09;;;7.48;84.54
32789;BME280;19141;48.980;8.410;2023-03-14T16:58:21;99226.63;;;7.37;85.76
32789;BME280;19141;48.980;8.410;2023-03-14T17:00:47;99227.94;;;7.41;84.45
32789;BME280;19141;48.980;8.410;2023-03-14T17:03:14;99241.69;;;7.44;85.47
32789;BME280;19141;48.980;8.410;2023-03-14T17:05:47;99235.06;;;7.40;86.09
32789;BME280;19141;48.980;8.410;2023-03-14T17:08:14;99251.66;;;7.34;86.67
32789;BME280;19141;48.980;8.410;2023-03-14T17:10:40;99249.50;;;7.38;85.59
32789;BME280;19141;48.980;8.410;2023-03-14T17:13:06;99256.16;;;7.33;85.57
32789;BME280;19141;48.980;8.410;2023-03-14T17:15:31;99251.56;;;7.27;85.20
32789;BME280;19141;48.980;8.410;2023-03-14T17:17:56;99259.50;;;7.27;84.80
32789;BME280;19141;48.980;8.410;2023-03-14T17:20:22;99263.50;;;7.23;86.33
32789;BME280;19141;48.980;8.410;2023-03-14T17:22:47;99272.09;;;7.25;86.57
32789;BME280;19141;48.980;8.410;2023-03-14T17:25:12;99275.78;;;7.16;85.79
32789;BME280;19141;48.980;8.410;2023-03-14T17:27:38;99276.78;;;7.15;86.11
32789;BME280;19141;48.980;8.410;2023-03-14T17:30:04;99279.09;;;7.18;86.80
32789;BME280;19141;48.980;8.410;2023-03-14T17:32:30;99293.75;;;7.06;88.44
32789;BME280;19141;48.980;8.410;2023-03-14T17:34:55;99283.00;;;6.99;88.35
32789;BME280;19141;48.980;8.410;2023-03-14T17:37:21;99280.88;;;6.95;89.76
32789;BME280;19141;48.980;8.410;2023-03-14T17:39:46;99301.69;;;7.06;90.45
32789;BME280;19141;48.980;8.410;2023-03-14T17:42:12;99306.63;;;7.09;90.01
32789;BME280;19141;48.980;8.410;2023-03-14T17:44:37;99312.09;;;7.07;89.23
32789;BME280;19141;48.980;8.410;2023-03-14T17:47:03;99321.25;;;6.97;90.57
32789;BME280;19141;48.980;8.410;2023-03-14T17:49:28;99332.00;;;6.95;91.18
32789;BME280;19141;48.980;8.410;2023-03-14T17:51:54;99334.69;;;6.87;92.06
32789;BME280;19141;48.980;8.410;2023-03-14T17:54:19;99348.63;;;6.81;92.82
32789;BME280;19141;48.980;8.410;2023-03-14T17:56:44;99361.66;;;6.83;93.56
32789;BME280;19141;48.980;8.410;2023-03-14T17:59:12;99353.13;;;6.72;93.98
32789;BME280;19141;48.980;8.410;2023-03-14T18:01:38;99364.34;;;6.74;93.67
32789;BME280;19141;48.980;8.410;2023-03-14T18:04:04;99373.31;;;6.65;94.05
32789;BME280;19141;48.980;8.410;2023-03-14T18:06:30;99374.28;;;6.64;94.28
32789;BME280;19141;48.980;8.410;2023-03-14T18:08:57;99380.56;;;6.63;93.82
32789;BME280;19141;48.980;8.410;2023-03-14T18:11:23;99375.97;;;6.65;93.52
32789;BME280;19141;48.980;8.410;2023-03-14T18:13:49;99382.56;;;6.61;93.71
32789;BME280;19141;48.980;8.410;2023-03-14T18:16:14;99384.06;;;6.64;94.07
32789;BME280;19141;48.980;8.410;2023-03-14T18:18:45;99388.69;;;6.62;94.37
32789;BME280;19141;48.980;8.410;2023-03-14T18:21:11;99388.03;;;6.51;94.66
32789;BME280;19141;48.980;8.410;2023-03-14T18:23:37;99389.53;;;6.54;94.94
32789;BME280;19141;48.980;8.410;2023-03-14T18:26:03;99397.78;;;6.51;94.37
32789;BME280;19141;48.980;8.410;2023-03-14T18:28:28;99408.72;;;6.56;93.36
32789;BME280;19141;48.980;8.410;2023-03-14T18:31:09;99415.00;;;6.55;93.30
32789;BME280;19141;48.980;8.410;2023-03-14T18:33:35;99422.94;;;6.55;93.70
32789;BME280;19141;48.980;8.410;2023-03-14T18:36:07;99421.63;;;6.59;92.43
32789;BME280;19141;48.980;8.410;2023-03-14T18:38:33;99428.03;;;6.65;91.65
32789;BME280;19141;48.980;8.410;2023-03-14T18:41:06;99426.56;;;6.62;91.39
32789;BME280;19141;48.980;8.410;2023-03-14T18:43:32;99421.28;;;6.54;91.49
32789;BME280;19141;48.980;8.410;2023-03-14T18:45:59;99436.34;;;6.62;91.83
32789;BME280;19141;48.980;8.410;2023-03-14T18:48:24;99428.38;;;6.62;91.48
32789;BME280;19141;48.980;8.410;2023-03-14T18:50:50;99438.81;;;6.63;91.31
32789;BME280;19141;48.980;8.410;2023-03-14T18:53:16;99430.88;;;6.55;91.77
32789;BME280;19141;48.980;8.410;2023-03-14T18:55:41;99428.59;;;6.52;92.58
32789;BME280;19141;48.980;8.410;2023-03-14T18:58:06;99433.84;;;6.44;92.31
32789;BME280;19141;48.980;8.410;2023-03-14T19:00:33;99433.53;;;6.39;92.08
32789;BME280;19141;48.980;8.410;2023-03-14T19:02:58;99446.09;;;6.37;92.59
32789;BME280;19141;48.980;8.410;2023-03-14T19:05:24;99453.03;;;6.38;92.13
32789;BME280;19141;48.980;8.410;2023-03-14T19:07:49;99450.41;;;6.30;92.80
32789;BME280;19141;48.980;8.410;2023-03-14T19:10:15;99464.09;;;6.25;93.00
32789;BME280;19141;48.980;8.410;2023-03-14T19:12:40;99471.06;;;6.26;92.77
32789;BME280;19141;48.980;8.410;2023-03-14T19:15:06;99466.09;;;6.23;92.53
32789;BME280;19141;48.980;8.410;2023-03-14T19:17:32;99476.69;;;6.23;92.79
32789;BME280;19141;48.980;8.410;2023-03-14T19:19:58;99480.16;;;6.23;93.41
32789;BME280;19141;48.980;8.410;2023-03-14T19:22:23;99489.59;;;6.26;92.90
32789;BME280;19141;48.980;8.410;2023-03-14T19:24:49;99484.94;;;6.20;93.28